YMA7002 YSTW-YMML
Flight info
| Callsign | YMA7002 |
|---|---|
| Flight time | N/A |
| Altitude | 24000 |
| Route | TW DCT PKS DCT ORINO DCT ARBEY |
| Aircraft | DH8D/M-SDE2E3FGRY/H |
Departure
| Time | 2026-05-05 02:02 |
|---|---|
| Airport | Tamworth Airport (YSTW) |
Arrival
| Time | N/A |
|---|---|
| Airport | Melbourne Airport (YMML) |
| Time | Latitude | Longitude | Altitude | Speed | Heading |
|---|---|---|---|---|---|
| 2026-05-05 01:56 | -31.08437 | 150.84944 | 1352 ft | 0 kts | 274° |
| 2026-05-05 01:59 | -31.08436 | 150.84941 | 1352 ft | 0 kts | 290° |
| 2026-05-05 01:59 | -31.08425 | 150.84938 | 1351 ft | 3 kts | 2° |
| 2026-05-05 01:59 | -31.08406 | 150.84952 | 1351 ft | 3 kts | 77° |
| 2026-05-05 01:59 | -31.08421 | 150.84990 | 1352 ft | 6 kts | 116° |
| 2026-05-05 02:00 | -31.08417 | 150.85043 | 1352 ft | 9 kts | 95° |
| 2026-05-05 02:00 | -31.08461 | 150.85115 | 1354 ft | 10 kts | 134° |
| 2026-05-05 02:00 | -31.08505 | 150.85169 | 1356 ft | 7 kts | 128° |
| 2026-05-05 02:00 | -31.08523 | 150.85220 | 1355 ft | 7 kts | 88° |
| 2026-05-05 02:01 | -31.08507 | 150.85283 | 1353 ft | 8 kts | 56° |
| 2026-05-05 02:01 | -31.08462 | 150.85339 | 1351 ft | 10 kts | 38° |
| 2026-05-05 02:01 | -31.08365 | 150.85274 | 1348 ft | 44 kts | 313° |
| 2026-05-05 02:01 | -31.07921 | 150.84724 | 1327 ft | 136 kts | 314° |
| 2026-05-05 02:02 | -31.07188 | 150.83887 | 1796 ft | 152 kts | 321° |
| 2026-05-05 02:02 | -31.06211 | 150.83276 | 2384 ft | 169 kts | 325° |
| 2026-05-05 02:02 | -31.05532 | 150.82138 | 2867 ft | 183 kts | 284° |
| 2026-05-05 02:02 | -31.05633 | 150.80652 | 3358 ft | 195 kts | 246° |
| 2026-05-05 02:03 | -31.06498 | 150.79388 | 3895 ft | 206 kts | 223° |
| 2026-05-05 02:03 | -31.07553 | 150.78220 | 4416 ft | 219 kts | 224° |
| 2026-05-05 02:03 | -31.08696 | 150.76968 | 4945 ft | 232 kts | 222° |
| 2026-05-05 02:03 | -31.09956 | 150.75709 | 5491 ft | 243 kts | 221° |
| 2026-05-05 02:04 | -31.11240 | 150.74438 | 6258 ft | 242 kts | 221° |
| 2026-05-05 02:04 | -31.12513 | 150.73190 | 6961 ft | 244 kts | 221° |
| 2026-05-05 02:04 | -31.13822 | 150.71905 | 7574 ft | 246 kts | 221° |
| 2026-05-05 02:04 | -31.15117 | 150.70630 | 8124 ft | 249 kts | 222° |
| 2026-05-05 02:05 | -31.16464 | 150.69308 | 8702 ft | 252 kts | 222° |
| 2026-05-05 02:05 | -31.17796 | 150.67999 | 9257 ft | 255 kts | 222° |
| 2026-05-05 02:05 | -31.19152 | 150.66669 | 9865 ft | 257 kts | 222° |
| 2026-05-05 02:05 | -31.20531 | 150.65311 | 10499 ft | 259 kts | 223° |